sensor_id;sensor_type;location;lat;lon;timestamp;P1;durP1;ratioP1;P2;durP2;ratioP2
16994;SDS011;8614;48.522;9.206;2023-05-10T00:01:44;2.70;;;2.60;;
16994;SDS011;8614;48.522;9.206;2023-05-10T00:04:11;2.70;;;2.60;;
16994;SDS011;8614;48.522;9.206;2023-05-10T00:06:38;4.67;;;4.43;;
16994;SDS011;8614;48.522;9.206;2023-05-10T00:09:05;6.47;;;6.07;;
16994;SDS011;8614;48.522;9.206;2023-05-10T00:11:33;11.07;;;10.47;;
16994;SDS011;8614;48.522;9.206;2023-05-10T00:14:00;3.93;;;3.70;;
16994;SDS011;8614;48.522;9.206;2023-05-10T00:16:27;5.73;;;5.43;;
16994;SDS011;8614;48.522;9.206;2023-05-10T00:18:54;2.80;;;2.60;;
16994;SDS011;8614;48.522;9.206;2023-05-10T00:21:20;11.67;;;11.07;;
16994;SDS011;8614;48.522;9.206;2023-05-10T00:23:47;10.80;;;10.10;;
16994;SDS011;8614;48.522;9.206;2023-05-10T00:26:14;8.30;;;7.70;;
16994;SDS011;8614;48.522;9.206;2023-05-10T00:28:45;8.43;;;8.00;;
16994;SDS011;8614;48.522;9.206;2023-05-10T00:31:12;8.20;;;7.70;;
16994;SDS011;8614;48.522;9.206;2023-05-10T00:33:39;9.27;;;8.77;;
16994;SDS011;8614;48.522;9.206;2023-05-10T00:36:07;10.80;;;10.20;;
16994;SDS011;8614;48.522;9.206;2023-05-10T00:38:34;8.60;;;8.10;;
16994;SDS011;8614;48.522;9.206;2023-05-10T00:41:01;11.97;;;11.37;;
16994;SDS011;8614;48.522;9.206;2023-05-10T00:43:31;7.23;;;6.77;;
16994;SDS011;8614;48.522;9.206;2023-05-10T00:45:59;8.80;;;8.30;;
16994;SDS011;8614;48.522;9.206;2023-05-10T00:48:26;3.33;;;3.13;;
16994;SDS011;8614;48.522;9.206;2023-05-10T00:50:54;2.70;;;2.50;;
16994;SDS011;8614;48.522;9.206;2023-05-10T00:53:21;10.03;;;9.53;;
16994;SDS011;8614;48.522;9.206;2023-05-10T00:55:48;10.50;;;10.00;;
16994;SDS011;8614;48.522;9.206;2023-05-10T00:58:16;8.20;;;7.80;;
16994;SDS011;8614;48.522;9.206;2023-05-10T01:00:43;3.33;;;2.73;;
16994;SDS011;8614;48.522;9.206;2023-05-10T01:03:14;2.70;;;2.50;;
16994;SDS011;8614;48.522;9.206;2023-05-10T01:05:42;2.60;;;2.50;;
16994;SDS011;8614;48.522;9.206;2023-05-10T01:08:08;2.50;;;2.30;;
16994;SDS011;8614;48.522;9.206;2023-05-10T01:10:35;2.40;;;2.30;;
16994;SDS011;8614;48.522;9.206;2023-05-10T01:13:02;2.60;;;2.40;;
16994;SDS011;8614;48.522;9.206;2023-05-10T01:15:29;2.70;;;2.37;;
16994;SDS011;8614;48.522;9.206;2023-05-10T01:17:57;2.40;;;2.30;;
16994;SDS011;8614;48.522;9.206;2023-05-10T01:20:25;2.53;;;2.43;;
16994;SDS011;8614;48.522;9.206;2023-05-10T01:23:07;2.40;;;2.30;;
16994;SDS011;8614;48.522;9.206;2023-05-10T01:25:53;2.40;;;2.30;;
16994;SDS011;8614;48.522;9.206;2023-05-10T01:28:45;2.70;;;2.60;;
16994;SDS011;8614;48.522;9.206;2023-05-10T01:31:51;2.50;;;2.40;;
16994;SDS011;8614;48.522;9.206;2023-05-10T01:34:35;2.60;;;2.50;;
16994;SDS011;8614;48.522;9.206;2023-05-10T01:37:07;2.43;;;2.30;;
16994;SDS011;8614;48.522;9.206;2023-05-10T01:39:40;5.70;;;5.30;;
16994;SDS011;8614;48.522;9.206;2023-05-10T01:42:14;2.30;;;2.20;;
16994;SDS011;8614;48.522;9.206;2023-05-10T01:44:46;2.50;;;2.40;;
16994;SDS011;8614;48.522;9.206;2023-05-10T01:47:24;2.40;;;2.30;;
16994;SDS011;8614;48.522;9.206;2023-05-10T01:50:03;2.40;;;2.30;;
16994;SDS011;8614;48.522;9.206;2023-05-10T01:52:34;2.30;;;2.20;;
16994;SDS011;8614;48.522;9.206;2023-05-10T01:55:06;2.47;;;2.37;;
16994;SDS011;8614;48.522;9.206;2023-05-10T01:57:37;2.43;;;2.33;;
16994;SDS011;8614;48.522;9.206;2023-05-10T02:00:06;2.63;;;2.43;;
16994;SDS011;8614;48.522;9.206;2023-05-10T02:02:44;2.50;;;2.40;;
16994;SDS011;8614;48.522;9.206;2023-05-10T02:05:12;2.70;;;2.60;;
16994;SDS011;8614;48.522;9.206;2023-05-10T02:07:40;2.40;;;2.30;;
16994;SDS011;8614;48.522;9.206;2023-05-10T02:10:09;2.40;;;2.30;;
16994;SDS011;8614;48.522;9.206;2023-05-10T02:12:37;2.33;;;2.23;;
16994;SDS011;8614;48.522;9.206;2023-05-10T02:15:07;2.97;;;2.83;;
16994;SDS011;8614;48.522;9.206;2023-05-10T02:17:36;2.50;;;2.40;;
16994;SDS011;8614;48.522;9.206;2023-05-10T02:20:06;2.20;;;2.10;;
16994;SDS011;8614;48.522;9.206;2023-05-10T02:22:34;4.93;;;4.73;;
16994;SDS011;8614;48.522;9.206;2023-05-10T02:25:03;2.47;;;2.37;;
16994;SDS011;8614;48.522;9.206;2023-05-10T02:27:30;6.67;;;6.37;;
16994;SDS011;8614;48.522;9.206;2023-05-10T02:29:58;10.73;;;10.13;;
16994;SDS011;8614;48.522;9.206;2023-05-10T02:32:26;10.30;;;9.80;;
16994;SDS011;8614;48.522;9.206;2023-05-10T02:34:55;11.53;;;10.83;;
16994;SDS011;8614;48.522;9.206;2023-05-10T02:37:24;11.20;;;10.60;;
16994;SDS011;8614;48.522;9.206;2023-05-10T02:39:53;9.47;;;8.97;;
16994;SDS011;8614;48.522;9.206;2023-05-10T02:42:23;9.10;;;8.50;;
16994;SDS011;8614;48.522;9.206;2023-05-10T02:44:53;9.20;;;8.70;;
16994;SDS011;8614;48.522;9.206;2023-05-10T02:47:22;8.77;;;8.27;;
16994;SDS011;8614;48.522;9.206;2023-05-10T02:49:49;8.50;;;8.10;;
16994;SDS011;8614;48.522;9.206;2023-05-10T02:52:21;8.87;;;8.37;;
16994;SDS011;8614;48.522;9.206;2023-05-10T02:54:52;9.17;;;8.47;;
16994;SDS011;8614;48.522;9.206;2023-05-10T02:57:22;10.73;;;10.10;;
16994;SDS011;8614;48.522;9.206;2023-05-10T02:59:52;10.97;;;10.37;;
16994;SDS011;8614;48.522;9.206;2023-05-10T03:02:20;13.43;;;12.63;;
16994;SDS011;8614;48.522;9.206;2023-05-10T03:04:47;10.63;;;10.03;;
16994;SDS011;8614;48.522;9.206;2023-05-10T03:07:14;11.60;;;11.00;;
16994;SDS011;8614;48.522;9.206;2023-05-10T03:09:47;11.40;;;10.80;;
16994;SDS011;8614;48.522;9.206;2023-05-10T03:12:18;11.77;;;11.17;;
16994;SDS011;8614;48.522;9.206;2023-05-10T03:14:53;11.63;;;11.03;;
16994;SDS011;8614;48.522;9.206;2023-05-10T03:17:29;11.20;;;10.60;;
16994;SDS011;8614;48.522;9.206;2023-05-10T03:20:03;11.53;;;10.93;;
16994;SDS011;8614;48.522;9.206;2023-05-10T03:22:34;11.37;;;10.67;;
16994;SDS011;8614;48.522;9.206;2023-05-10T03:25:05;11.00;;;10.40;;
16994;SDS011;8614;48.522;9.206;2023-05-10T03:27:35;11.37;;;10.77;;
16994;SDS011;8614;48.522;9.206;2023-05-10T03:30:05;11.67;;;11.07;;
16994;SDS011;8614;48.522;9.206;2023-05-10T03:32:36;11.77;;;11.17;;
16994;SDS011;8614;48.522;9.206;2023-05-10T03:35:05;11.80;;;11.20;;
16994;SDS011;8614;48.522;9.206;2023-05-10T03:37:33;12.50;;;11.90;;
16994;SDS011;8614;48.522;9.206;2023-05-10T03:40:00;12.10;;;11.50;;
16994;SDS011;8614;48.522;9.206;2023-05-10T03:42:29;12.90;;;12.20;;
16994;SDS011;8614;48.522;9.206;2023-05-10T03:44:57;12.50;;;11.90;;
16994;SDS011;8614;48.522;9.206;2023-05-10T03:47:24;9.53;;;9.03;;
16994;SDS011;8614;48.522;9.206;2023-05-10T03:49:51;9.57;;;9.03;;
16994;SDS011;8614;48.522;9.206;2023-05-10T03:52:18;8.47;;;7.97;;
16994;SDS011;8614;48.522;9.206;2023-05-10T03:54:45;8.20;;;7.80;;
16994;SDS011;8614;48.522;9.206;2023-05-10T03:57:11;8.30;;;7.90;;
16994;SDS011;8614;48.522;9.206;2023-05-10T03:59:38;8.80;;;8.30;;
16994;SDS011;8614;48.522;9.206;2023-05-10T04:02:06;8.87;;;8.37;;
16994;SDS011;8614;48.522;9.206;2023-05-10T04:04:35;12.93;;;12.27;;
16994;SDS011;8614;48.522;9.206;2023-05-10T04:07:01;7.07;;;6.50;;
16994;SDS011;8614;48.522;9.206;2023-05-10T04:09:29;13.70;;;13.00;;
16994;SDS011;8614;48.522;9.206;2023-05-10T04:11:56;14.20;;;13.40;;
16994;SDS011;8614;48.522;9.206;2023-05-10T04:14:24;14.80;;;13.80;;
16994;SDS011;8614;48.522;9.206;2023-05-10T04:16:51;11.67;;;10.97;;
16994;SDS011;8614;48.522;9.206;2023-05-10T04:19:19;13.73;;;12.93;;
16994;SDS011;8614;48.522;9.206;2023-05-10T04:21:46;6.83;;;6.33;;
16994;SDS011;8614;48.522;9.206;2023-05-10T04:24:13;5.60;;;5.30;;
16994;SDS011;8614;48.522;9.206;2023-05-10T04:26:39;7.27;;;6.87;;
16994;SDS011;8614;48.522;9.206;2023-05-10T04:29:06;7.43;;;6.90;;
16994;SDS011;8614;48.522;9.206;2023-05-10T04:31:33;4.00;;;3.70;;
16994;SDS011;8614;48.522;9.206;2023-05-10T04:34:01;14.73;;;13.83;;
16994;SDS011;8614;48.522;9.206;2023-05-10T04:36:29;3.40;;;3.30;;
16994;SDS011;8614;48.522;9.206;2023-05-10T04:38:57;9.67;;;9.17;;
16994;SDS011;8614;48.522;9.206;2023-05-10T04:41:24;9.77;;;9.23;;
16994;SDS011;8614;48.522;9.206;2023-05-10T04:43:51;3.90;;;3.60;;
16994;SDS011;8614;48.522;9.206;2023-05-10T04:46:18;3.70;;;3.50;;
16994;SDS011;8614;48.522;9.206;2023-05-10T04:48:44;3.60;;;3.40;;
16994;SDS011;8614;48.522;9.206;2023-05-10T04:51:11;3.30;;;3.00;;
16994;SDS011;8614;48.522;9.206;2023-05-10T04:53:39;3.40;;;3.20;;
16994;SDS011;8614;48.522;9.206;2023-05-10T04:56:06;3.90;;;3.70;;
16994;SDS011;8614;48.522;9.206;2023-05-10T04:58:33;3.57;;;3.37;;
16994;SDS011;8614;48.522;9.206;2023-05-10T05:01:04;3.30;;;3.20;;
16994;SDS011;8614;48.522;9.206;2023-05-10T05:03:32;4.50;;;4.30;;
16994;SDS011;8614;48.522;9.206;2023-05-10T05:05:58;5.40;;;4.90;;
16994;SDS011;8614;48.522;9.206;2023-05-10T05:08:25;3.47;;;3.27;;
16994;SDS011;8614;48.522;9.206;2023-05-10T05:10:54;3.73;;;3.40;;
16994;SDS011;8614;48.522;9.206;2023-05-10T05:13:20;4.80;;;4.50;;
16994;SDS011;8614;48.522;9.206;2023-05-10T05:15:47;5.50;;;5.20;;
16994;SDS011;8614;48.522;9.206;2023-05-10T05:18:14;10.10;;;9.60;;
16994;SDS011;8614;48.522;9.206;2023-05-10T05:20:41;5.40;;;5.10;;
16994;SDS011;8614;48.522;9.206;2023-05-10T05:23:08;3.50;;;3.30;;
16994;SDS011;8614;48.522;9.206;2023-05-10T05:25:35;3.97;;;3.77;;
16994;SDS011;8614;48.522;9.206;2023-05-10T05:28:03;3.90;;;3.70;;
16994;SDS011;8614;48.522;9.206;2023-05-10T05:30:30;9.27;;;8.77;;
16994;SDS011;8614;48.522;9.206;2023-05-10T05:32:57;4.50;;;4.30;;
16994;SDS011;8614;48.522;9.206;2023-05-10T05:35:24;4.70;;;4.50;;
16994;SDS011;8614;48.522;9.206;2023-05-10T05:37:51;5.63;;;5.33;;
16994;SDS011;8614;48.522;9.206;2023-05-10T05:40:18;3.97;;;3.77;;
16994;SDS011;8614;48.522;9.206;2023-05-10T05:42:45;3.33;;;3.13;;
16994;SDS011;8614;48.522;9.206;2023-05-10T05:45:13;3.83;;;3.53;;
16994;SDS011;8614;48.522;9.206;2023-05-10T05:47:40;3.80;;;3.50;;
16994;SDS011;8614;48.522;9.206;2023-05-10T05:50:07;3.67;;;3.43;;
16994;SDS011;8614;48.522;9.206;2023-05-10T05:52:35;3.50;;;3.30;;
16994;SDS011;8614;48.522;9.206;2023-05-10T05:55:02;3.30;;;3.10;;
16994;SDS011;8614;48.522;9.206;2023-05-10T05:57:29;3.50;;;3.30;;
16994;SDS011;8614;48.522;9.206;2023-05-10T05:59:56;3.60;;;3.40;;
16994;SDS011;8614;48.522;9.206;2023-05-10T06:02:24;3.43;;;3.23;;
16994;SDS011;8614;48.522;9.206;2023-05-10T06:04:51;3.50;;;3.20;;
16994;SDS011;8614;48.522;9.206;2023-05-10T06:07:18;3.40;;;3.20;;
16994;SDS011;8614;48.522;9.206;2023-05-10T06:09:45;3.20;;;3.00;;
16994;SDS011;8614;48.522;9.206;2023-05-10T06:12:12;3.00;;;2.90;;
16994;SDS011;8614;48.522;9.206;2023-05-10T06:14:38;3.40;;;3.20;;
16994;SDS011;8614;48.522;9.206;2023-05-10T06:17:05;3.63;;;3.33;;
16994;SDS011;8614;48.522;9.206;2023-05-10T06:19:33;3.57;;;3.37;;
16994;SDS011;8614;48.522;9.206;2023-05-10T06:22:01;3.40;;;3.20;;
16994;SDS011;8614;48.522;9.206;2023-05-10T06:24:28;3.30;;;3.10;;
16994;SDS011;8614;48.522;9.206;2023-05-10T06:26:55;3.33;;;3.10;;
16994;SDS011;8614;48.522;9.206;2023-05-10T06:29:25;3.30;;;3.00;;
16994;SDS011;8614;48.522;9.206;2023-05-10T06:31:52;3.30;;;3.10;;
16994;SDS011;8614;48.522;9.206;2023-05-10T06:34:19;4.37;;;3.33;;
16994;SDS011;8614;48.522;9.206;2023-05-10T06:36:47;3.70;;;3.50;;
16994;SDS011;8614;48.522;9.206;2023-05-10T06:39:14;3.80;;;3.30;;
16994;SDS011;8614;48.522;9.206;2023-05-10T06:41:41;3.20;;;3.00;;
16994;SDS011;8614;48.522;9.206;2023-05-10T06:44:08;3.37;;;3.10;;
16994;SDS011;8614;48.522;9.206;2023-05-10T06:46:34;3.13;;;2.97;;
16994;SDS011;8614;48.522;9.206;2023-05-10T06:49:01;3.43;;;3.23;;
16994;SDS011;8614;48.522;9.206;2023-05-10T06:51:28;3.30;;;3.10;;
16994;SDS011;8614;48.522;9.206;2023-05-10T06:53:56;3.33;;;3.13;;
16994;SDS011;8614;48.522;9.206;2023-05-10T06:56:23;3.37;;;3.03;;
16994;SDS011;8614;48.522;9.206;2023-05-10T06:58:50;3.00;;;2.80;;
16994;SDS011;8614;48.522;9.206;2023-05-10T07:01:16;2.87;;;2.73;;
16994;SDS011;8614;48.522;9.206;2023-05-10T07:03:43;2.80;;;2.70;;
16994;SDS011;8614;48.522;9.206;2023-05-10T07:06:10;3.20;;;3.00;;
16994;SDS011;8614;48.522;9.206;2023-05-10T07:08:37;6.87;;;6.47;;
16994;SDS011;8614;48.522;9.206;2023-05-10T07:11:05;4.80;;;3.03;;
16994;SDS011;8614;48.522;9.206;2023-05-10T07:13:33;3.23;;;3.03;;
16994;SDS011;8614;48.522;9.206;2023-05-10T07:16:01;4.67;;;4.37;;
16994;SDS011;8614;48.522;9.206;2023-05-10T07:18:29;3.93;;;3.73;;
16994;SDS011;8614;48.522;9.206;2023-05-10T07:20:56;3.00;;;2.80;;
16994;SDS011;8614;48.522;9.206;2023-05-10T07:23:23;2.80;;;2.50;;
16994;SDS011;8614;48.522;9.206;2023-05-10T07:25:50;2.60;;;2.50;;
16994;SDS011;8614;48.522;9.206;2023-05-10T07:28:19;5.80;;;5.50;;
16994;SDS011;8614;48.522;9.206;2023-05-10T07:30:46;4.60;;;4.30;;
16994;SDS011;8614;48.522;9.206;2023-05-10T07:33:13;3.90;;;3.63;;
16994;SDS011;8614;48.522;9.206;2023-05-10T07:35:40;4.80;;;4.50;;
16994;SDS011;8614;48.522;9.206;2023-05-10T07:38:07;7.07;;;6.67;;
16994;SDS011;8614;48.522;9.206;2023-05-10T07:40:36;2.70;;;2.60;;
16994;SDS011;8614;48.522;9.206;2023-05-10T07:43:03;3.00;;;2.80;;
16994;SDS011;8614;48.522;9.206;2023-05-10T07:45:31;3.20;;;3.00;;
16994;SDS011;8614;48.522;9.206;2023-05-10T07:47:58;4.83;;;4.53;;
16994;SDS011;8614;48.522;9.206;2023-05-10T07:50:25;3.73;;;3.43;;
16994;SDS011;8614;48.522;9.206;2023-05-10T07:52:52;4.23;;;4.03;;
16994;SDS011;8614;48.522;9.206;2023-05-10T07:55:19;4.10;;;3.90;;
16994;SDS011;8614;48.522;9.206;2023-05-10T07:57:46;2.93;;;2.73;;
16994;SDS011;8614;48.522;9.206;2023-05-10T08:00:14;5.10;;;4.80;;
16994;SDS011;8614;48.522;9.206;2023-05-10T08:02:45;6.00;;;5.63;;
16994;SDS011;8614;48.522;9.206;2023-05-10T08:05:12;3.57;;;3.37;;
16994;SDS011;8614;48.522;9.206;2023-05-10T08:07:39;2.50;;;2.40;;
16994;SDS011;8614;48.522;9.206;2023-05-10T08:10:07;2.50;;;2.40;;
16994;SDS011;8614;48.522;9.206;2023-05-10T08:12:34;2.70;;;2.60;;
16994;SDS011;8614;48.522;9.206;2023-05-10T08:15:01;2.77;;;2.67;;
16994;SDS011;8614;48.522;9.206;2023-05-10T08:17:28;6.60;;;6.20;;
16994;SDS011;8614;48.522;9.206;2023-05-10T08:19:56;2.50;;;2.40;;
16994;SDS011;8614;48.522;9.206;2023-05-10T08:22:23;3.20;;;3.00;;
16994;SDS011;8614;48.522;9.206;2023-05-10T08:24:51;3.23;;;3.10;;
16994;SDS011;8614;48.522;9.206;2023-05-10T08:27:17;4.07;;;3.80;;
16994;SDS011;8614;48.522;9.206;2023-05-10T08:29:44;4.20;;;4.00;;
16994;SDS011;8614;48.522;9.206;2023-05-10T08:32:11;3.13;;;3.00;;
16994;SDS011;8614;48.522;9.206;2023-05-10T08:34:38;2.70;;;2.60;;
16994;SDS011;8614;48.522;9.206;2023-05-10T08:37:06;3.00;;;2.80;;
16994;SDS011;8614;48.522;9.206;2023-05-10T08:39:34;5.93;;;5.63;;
16994;SDS011;8614;48.522;9.206;2023-05-10T08:42:01;4.40;;;4.00;;
16994;SDS011;8614;48.522;9.206;2023-05-10T08:44:30;6.90;;;6.50;;
16994;SDS011;8614;48.522;9.206;2023-05-10T08:46:58;5.60;;;5.20;;
16994;SDS011;8614;48.522;9.206;2023-05-10T08:49:28;6.77;;;6.37;;
16994;SDS011;8614;48.522;9.206;2023-05-10T08:51:57;4.10;;;3.80;;
16994;SDS011;8614;48.522;9.206;2023-05-10T08:54:27;3.07;;;2.93;;
16994;SDS011;8614;48.522;9.206;2023-05-10T08:56:55;3.57;;;3.37;;
16994;SDS011;8614;48.522;9.206;2023-05-10T08:59:22;4.67;;;4.47;;
16994;SDS011;8614;48.522;9.206;2023-05-10T09:01:49;5.50;;;5.20;;
16994;SDS011;8614;48.522;9.206;2023-05-10T09:04:18;7.97;;;7.53;;
16994;SDS011;8614;48.522;9.206;2023-05-10T09:06:46;6.47;;;6.17;;
16994;SDS011;8614;48.522;9.206;2023-05-10T09:09:13;5.67;;;5.37;;
16994;SDS011;8614;48.522;9.206;2023-05-10T09:11:42;7.13;;;6.73;;
16994;SDS011;8614;48.522;9.206;2023-05-10T09:14:10;5.43;;;5.13;;
16994;SDS011;8614;48.522;9.206;2023-05-10T09:16:39;7.43;;;7.03;;
16994;SDS011;8614;48.522;9.206;2023-05-10T09:19:06;6.77;;;6.47;;
16994;SDS011;8614;48.522;9.206;2023-05-10T09:21:34;7.73;;;7.13;;
16994;SDS011;8614;48.522;9.206;2023-05-10T09:24:03;9.10;;;8.60;;
16994;SDS011;8614;48.522;9.206;2023-05-10T09:26:31;8.60;;;8.00;;
16994;SDS011;8614;48.522;9.206;2023-05-10T09:28:59;7.73;;;7.27;;
16994;SDS011;8614;48.522;9.206;2023-05-10T09:31:42;8.07;;;7.57;;
16994;SDS011;8614;48.522;9.206;2023-05-10T09:34:11;3.93;;;3.73;;
16994;SDS011;8614;48.522;9.206;2023-05-10T09:36:52;8.30;;;7.80;;
16994;SDS011;8614;48.522;9.206;2023-05-10T09:39:20;7.70;;;7.30;;
16994;SDS011;8614;48.522;9.206;2023-05-10T09:41:46;8.00;;;7.60;;
16994;SDS011;8614;48.522;9.206;2023-05-10T09:44:17;7.53;;;7.13;;
16994;SDS011;8614;48.522;9.206;2023-05-10T09:46:49;7.33;;;7.00;;
16994;SDS011;8614;48.522;9.206;2023-05-10T09:49:17;7.87;;;7.47;;
16994;SDS011;8614;48.522;9.206;2023-05-10T09:51:44;5.37;;;4.90;;
16994;SDS011;8614;48.522;9.206;2023-05-10T09:54:12;6.27;;;5.87;;
16994;SDS011;8614;48.522;9.206;2023-05-10T09:56:39;5.83;;;5.53;;
16994;SDS011;8614;48.522;9.206;2023-05-10T09:59:07;4.33;;;4.13;;
16994;SDS011;8614;48.522;9.206;2023-05-10T10:01:37;3.27;;;3.07;;
16994;SDS011;8614;48.522;9.206;2023-05-10T10:04:04;4.37;;;3.90;;
16994;SDS011;8614;48.522;9.206;2023-05-10T10:06:35;3.10;;;2.90;;
16994;SDS011;8614;48.522;9.206;2023-05-10T10:09:03;2.67;;;2.47;;
16994;SDS011;8614;48.522;9.206;2023-05-10T10:11:30;2.50;;;2.40;;
16994;SDS011;8614;48.522;9.206;2023-05-10T10:13:57;3.13;;;3.03;;
16994;SDS011;8614;48.522;9.206;2023-05-10T10:16:24;5.67;;;5.37;;
16994;SDS011;8614;48.522;9.206;2023-05-10T10:18:53;2.40;;;2.30;;
16994;SDS011;8614;48.522;9.206;2023-05-10T10:21:21;3.33;;;2.90;;
16994;SDS011;8614;48.522;9.206;2023-05-10T10:23:48;5.40;;;5.10;;
16994;SDS011;8614;48.522;9.206;2023-05-10T10:26:15;6.23;;;5.90;;
16994;SDS011;8614;48.522;9.206;2023-05-10T10:28:46;3.10;;;2.90;;
16994;SDS011;8614;48.522;9.206;2023-05-10T10:31:18;5.70;;;5.30;;
16994;SDS011;8614;48.522;9.206;2023-05-10T10:34:01;8.37;;;7.87;;
16994;SDS011;8614;48.522;9.206;2023-05-10T10:36:31;2.60;;;2.50;;
16994;SDS011;8614;48.522;9.206;2023-05-10T10:39:00;3.17;;;3.07;;
16994;SDS011;8614;48.522;9.206;2023-05-10T10:41:29;5.93;;;5.63;;
16994;SDS011;8614;48.522;9.206;2023-05-10T10:46:59;3.17;;;3.07;;
16994;SDS011;8614;48.522;9.206;2023-05-10T10:49:49;4.60;;;2.80;;
16994;SDS011;8614;48.522;9.206;2023-05-10T10:52:21;3.50;;;3.10;;
16994;SDS011;8614;48.522;9.206;2023-05-10T10:54:53;2.80;;;2.70;;
16994;SDS011;8614;48.522;9.206;2023-05-10T10:57:25;2.80;;;2.70;;
16994;SDS011;8614;48.522;9.206;2023-05-10T10:59:54;3.00;;;2.70;;
16994;SDS011;8614;48.522;9.206;2023-05-10T11:02:44;4.03;;;3.83;;
16994;SDS011;8614;48.522;9.206;2023-05-10T11:05:25;3.13;;;2.47;;
16994;SDS011;8614;48.522;9.206;2023-05-10T11:08:07;7.20;;;6.80;;
16994;SDS011;8614;48.522;9.206;2023-05-10T11:10:36;2.87;;;2.67;;
16994;SDS011;8614;48.522;9.206;2023-05-10T11:13:03;4.17;;;3.90;;
16994;SDS011;8614;48.522;9.206;2023-05-10T11:15:32;5.33;;;5.03;;
16994;SDS011;8614;48.522;9.206;2023-05-10T11:18:15;4.90;;;4.60;;
16994;SDS011;8614;48.522;9.206;2023-05-10T11:20:46;4.77;;;4.47;;
16994;SDS011;8614;48.522;9.206;2023-05-10T11:23:17;6.50;;;6.00;;
16994;SDS011;8614;48.522;9.206;2023-05-10T11:25:46;5.90;;;5.60;;
16994;SDS011;8614;48.522;9.206;2023-05-10T11:28:14;5.07;;;4.77;;
16994;SDS011;8614;48.522;9.206;2023-05-10T11:30:43;2.60;;;2.40;;
16994;SDS011;8614;48.522;9.206;2023-05-10T11:33:14;3.57;;;3.27;;
16994;SDS011;8614;48.522;9.206;2023-05-10T11:35:42;3.17;;;3.07;;
16994;SDS011;8614;48.522;9.206;2023-05-10T11:38:10;3.53;;;2.43;;
16994;SDS011;8614;48.522;9.206;2023-05-10T11:40:38;9.20;;;8.67;;
16994;SDS011;8614;48.522;9.206;2023-05-10T11:43:05;9.30;;;8.80;;
16994;SDS011;8614;48.522;9.206;2023-05-10T11:45:34;5.90;;;5.50;;
16994;SDS011;8614;48.522;9.206;2023-05-10T11:48:02;4.37;;;4.17;;
16994;SDS011;8614;48.522;9.206;2023-05-10T11:50:29;9.27;;;8.77;;
16994;SDS011;8614;48.522;9.206;2023-05-10T11:52:56;9.30;;;8.80;;
16994;SDS011;8614;48.522;9.206;2023-05-10T11:55:25;9.60;;;9.10;;
16994;SDS011;8614;48.522;9.206;2023-05-10T11:57:52;5.80;;;5.40;;
16994;SDS011;8614;48.522;9.206;2023-05-10T12:00:19;5.80;;;5.40;;
16994;SDS011;8614;48.522;9.206;2023-05-10T12:02:46;8.07;;;7.47;;
16994;SDS011;8614;48.522;9.206;2023-05-10T12:05:14;6.07;;;5.67;;
16994;SDS011;8614;48.522;9.206;2023-05-10T12:07:41;2.50;;;2.30;;
16994;SDS011;8614;48.522;9.206;2023-05-10T12:10:08;2.37;;;2.20;;
16994;SDS011;8614;48.522;9.206;2023-05-10T12:12:39;2.80;;;2.30;;
16994;SDS011;8614;48.522;9.206;2023-05-10T12:15:10;2.63;;;2.43;;
16994;SDS011;8614;48.522;9.206;2023-05-10T12:17:37;2.57;;;2.37;;
16994;SDS011;8614;48.522;9.206;2023-05-10T12:20:12;4.07;;;2.53;;
16994;SDS011;8614;48.522;9.206;2023-05-10T12:22:40;2.40;;;2.30;;
16994;SDS011;8614;48.522;9.206;2023-05-10T12:25:08;2.90;;;2.50;;
16994;SDS011;8614;48.522;9.206;2023-05-10T12:27:35;6.77;;;6.40;;
16994;SDS011;8614;48.522;9.206;2023-05-10T12:30:04;2.67;;;2.50;;
16994;SDS011;8614;48.522;9.206;2023-05-10T12:32:39;6.67;;;6.07;;
16994;SDS011;8614;48.522;9.206;2023-05-10T12:35:06;2.60;;;2.40;;
16994;SDS011;8614;48.522;9.206;2023-05-10T12:37:34;4.13;;;3.20;;
16994;SDS011;8614;48.522;9.206;2023-05-10T12:40:05;3.90;;;3.47;;
16994;SDS011;8614;48.522;9.206;2023-05-10T12:42:34;4.73;;;4.43;;
16994;SDS011;8614;48.522;9.206;2023-05-10T12:45:02;2.50;;;2.30;;
16994;SDS011;8614;48.522;9.206;2023-05-10T12:47:30;4.50;;;4.13;;
16994;SDS011;8614;48.522;9.206;2023-05-10T12:49:58;7.20;;;6.80;;
16994;SDS011;8614;48.522;9.206;2023-05-10T12:52:25;7.30;;;6.80;;
16994;SDS011;8614;48.522;9.206;2023-05-10T12:54:53;4.27;;;3.97;;
16994;SDS011;8614;48.522;9.206;2023-05-10T12:57:20;6.63;;;5.03;;
16994;SDS011;8614;48.522;9.206;2023-05-10T12:59:47;3.10;;;2.67;;
16994;SDS011;8614;48.522;9.206;2023-05-10T13:02:15;3.07;;;2.40;;
16994;SDS011;8614;48.522;9.206;2023-05-10T13:04:43;2.57;;;2.47;;
16994;SDS011;8614;48.522;9.206;2023-05-10T13:07:11;2.73;;;2.53;;
16994;SDS011;8614;48.522;9.206;2023-05-10T13:09:38;2.67;;;2.47;;
16994;SDS011;8614;48.522;9.206;2023-05-10T13:12:05;3.00;;;2.80;;
16994;SDS011;8614;48.522;9.206;2023-05-10T13:14:31;4.70;;;4.40;;
16994;SDS011;8614;48.522;9.206;2023-05-10T13:16:58;5.47;;;5.13;;
16994;SDS011;8614;48.522;9.206;2023-05-10T13:19:26;3.27;;;3.07;;
16994;SDS011;8614;48.522;9.206;2023-05-10T13:21:53;3.13;;;2.90;;
16994;SDS011;8614;48.522;9.206;2023-05-10T13:24:20;3.60;;;2.90;;
16994;SDS011;8614;48.522;9.206;2023-05-10T13:26:47;4.30;;;3.13;;
16994;SDS011;8614;48.522;9.206;2023-05-10T13:29:14;6.07;;;5.67;;
16994;SDS011;8614;48.522;9.206;2023-05-10T13:31:43;5.60;;;5.20;;
16994;SDS011;8614;48.522;9.206;2023-05-10T13:34:09;4.97;;;4.53;;
16994;SDS011;8614;48.522;9.206;2023-05-10T13:36:38;6.40;;;6.00;;
16994;SDS011;8614;48.522;9.206;2023-05-10T13:39:04;7.10;;;6.60;;
16994;SDS011;8614;48.522;9.206;2023-05-10T13:41:31;2.70;;;2.50;;
16994;SDS011;8614;48.522;9.206;2023-05-10T13:43:59;3.37;;;2.73;;
16994;SDS011;8614;48.522;9.206;2023-05-10T13:46:25;4.20;;;3.80;;
16994;SDS011;8614;48.522;9.206;2023-05-10T13:48:52;5.37;;;4.97;;
16994;SDS011;8614;48.522;9.206;2023-05-10T13:51:19;6.67;;;6.27;;
16994;SDS011;8614;48.522;9.206;2023-05-10T13:53:47;8.50;;;7.90;;
16994;SDS011;8614;48.522;9.206;2023-05-10T13:56:14;7.00;;;6.50;;
16994;SDS011;8614;48.522;9.206;2023-05-10T13:58:41;4.80;;;3.27;;
16994;SDS011;8614;48.522;9.206;2023-05-10T14:01:07;2.50;;;2.37;;
16994;SDS011;8614;48.522;9.206;2023-05-10T14:03:35;2.63;;;2.50;;
16994;SDS011;8614;48.522;9.206;2023-05-10T14:06:02;2.50;;;2.30;;
16994;SDS011;8614;48.522;9.206;2023-05-10T14:08:29;3.30;;;2.70;;
16994;SDS011;8614;48.522;9.206;2023-05-10T14:10:57;3.50;;;2.70;;
16994;SDS011;8614;48.522;9.206;2023-05-10T14:13:23;3.27;;;2.20;;
16994;SDS011;8614;48.522;9.206;2023-05-10T14:15:50;4.10;;;2.70;;
16994;SDS011;8614;48.522;9.206;2023-05-10T14:18:18;2.67;;;2.47;;
16994;SDS011;8614;48.522;9.206;2023-05-10T14:20:45;2.60;;;2.40;;
16994;SDS011;8614;48.522;9.206;2023-05-10T14:23:12;2.77;;;2.57;;
16994;SDS011;8614;48.522;9.206;2023-05-10T14:25:39;4.80;;;2.50;;
16994;SDS011;8614;48.522;9.206;2023-05-10T14:28:08;2.60;;;2.40;;
16994;SDS011;8614;48.522;9.206;2023-05-10T14:30:34;3.20;;;2.53;;
16994;SDS011;8614;48.522;9.206;2023-05-10T14:33:01;3.37;;;2.93;;
16994;SDS011;8614;48.522;9.206;2023-05-10T14:35:28;4.03;;;2.67;;
16994;SDS011;8614;48.522;9.206;2023-05-10T14:37:57;2.50;;;2.40;;
16994;SDS011;8614;48.522;9.206;2023-05-10T14:40:24;2.47;;;2.27;;
16994;SDS011;8614;48.522;9.206;2023-05-10T14:42:51;6.27;;;2.40;;
16994;SDS011;8614;48.522;9.206;2023-05-10T14:45:20;2.73;;;2.53;;
16994;SDS011;8614;48.522;9.206;2023-05-10T14:47:47;4.27;;;3.87;;
16994;SDS011;8614;48.522;9.206;2023-05-10T14:50:14;2.27;;;2.13;;
16994;SDS011;8614;48.522;9.206;2023-05-10T14:52:41;2.27;;;2.10;;
16994;SDS011;8614;48.522;9.206;2023-05-10T14:55:08;2.23;;;2.13;;
16994;SDS011;8614;48.522;9.206;2023-05-10T14:57:35;2.40;;;2.20;;
16994;SDS011;8614;48.522;9.206;2023-05-10T15:00:02;2.40;;;2.20;;
16994;SDS011;8614;48.522;9.206;2023-05-10T15:02:31;2.47;;;2.27;;
16994;SDS011;8614;48.522;9.206;2023-05-10T15:04:58;2.20;;;2.10;;
16994;SDS011;8614;48.522;9.206;2023-05-10T15:07:25;2.33;;;2.23;;
16994;SDS011;8614;48.522;9.206;2023-05-10T15:09:52;7.07;;;6.57;;